createdAt,value
2018-09-09T00:02:05.936Z,16.87
2018-09-09T00:04:35.310Z,20.87
2018-09-09T00:07:04.842Z,19.43
2018-09-09T00:09:39.211Z,29.10
2018-09-09T00:12:08.610Z,21.80
2018-09-09T00:14:37.960Z,22.90
2018-09-09T00:17:07.340Z,16.17
2018-09-09T00:19:36.774Z,19.13
2018-09-09T00:22:06.291Z,22.13
2018-09-09T00:24:36.366Z,16.13
2018-09-09T00:27:06.141Z,21.00
2018-09-09T00:29:35.672Z,13.60
2018-09-09T00:32:05.022Z,16.00
2018-09-09T00:34:34.376Z,15.87
2018-09-09T00:37:03.765Z,18.57
2018-09-09T00:39:33.198Z,15.20
2018-09-09T00:42:02.631Z,18.00
2018-09-09T00:44:32.024Z,22.73
2018-09-09T00:47:01.358Z,19.67
2018-09-09T00:49:35.866Z,26.30
2018-09-09T00:52:10.434Z,21.73
2018-09-09T00:54:39.890Z,15.70
2018-09-09T00:57:09.284Z,11.97
2018-09-09T00:59:38.627Z,20.45
2018-09-09T01:02:08.146Z,29.47
2018-09-09T01:04:37.503Z,16.23
2018-09-09T01:07:06.924Z,12.10
2018-09-09T01:09:36.434Z,16.30
2018-09-09T01:12:05.817Z,9.53
2018-09-09T01:14:35.705Z,4.60
2018-09-09T01:17:05.100Z,5.13
2018-09-09T01:19:34.471Z,2.83
2018-09-09T01:22:03.883Z,3.00
2018-09-09T01:24:33.262Z,5.27
2018-09-09T01:27:02.590Z,4.73
2018-09-09T01:29:32.024Z,3.33
2018-09-09T01:32:01.383Z,7.90
2018-09-09T01:34:30.801Z,5.90
2018-09-09T01:37:00.262Z,4.40
2018-09-09T01:39:29.616Z,5.13
2018-09-09T01:41:58.998Z,3.13
2018-09-09T01:44:28.376Z,2.87
2018-09-09T01:46:57.803Z,3.67
2018-09-09T01:49:27.196Z,3.40
2018-09-09T01:51:56.591Z,3.93
2018-09-09T01:54:25.959Z,3.17
2018-09-09T01:56:55.458Z,3.93
2018-09-09T01:59:24.908Z,8.57
2018-09-09T02:01:54.291Z,2.37
2018-09-09T02:04:23.726Z,3.90
2018-09-09T02:06:53.138Z,2.40
2018-09-09T02:09:22.550Z,4.87
2018-09-09T02:11:51.895Z,7.50
2018-09-09T02:14:21.250Z,3.10
2018-09-09T02:16:50.675Z,3.40
2018-09-09T02:19:20.045Z,2.27
2018-09-09T02:21:49.414Z,3.33
2018-09-09T02:24:18.770Z,3.63
2018-09-09T02:26:48.172Z,2.30
2018-09-09T02:29:17.618Z,5.80
2018-09-09T02:31:46.991Z,4.30
2018-09-09T02:34:16.410Z,4.83
2018-09-09T02:36:45.913Z,4.80
2018-09-09T02:39:15.434Z,2.93
2018-09-09T02:41:44.790Z,3.33
2018-09-09T02:44:14.154Z,7.13
2018-09-09T02:46:43.481Z,3.93
2018-09-09T02:49:12.835Z,5.27
2018-09-09T02:51:42.257Z,6.23
2018-09-09T02:54:11.619Z,2.73
2018-09-09T02:56:40.935Z,2.80
2018-09-09T02:59:10.385Z,5.17
2018-09-09T03:01:39.729Z,4.20
2018-09-09T03:04:09.153Z,6.30
2018-09-09T03:06:38.499Z,5.97
2018-09-09T03:09:07.847Z,4.43
2018-09-09T03:11:37.247Z,5.60
2018-09-09T03:14:06.769Z,8.63
2018-09-09T03:16:36.104Z,8.68
2018-09-09T03:19:05.486Z,5.37
2018-09-09T03:21:34.863Z,4.13
2018-09-09T03:24:04.262Z,12.00
2018-09-09T03:26:33.603Z,13.20
2018-09-09T03:29:02.954Z,13.70
2018-09-09T03:31:32.346Z,10.40
2018-09-09T03:34:01.668Z,4.83
2018-09-09T03:36:31.087Z,12.03
2018-09-09T03:39:00.432Z,11.27
2018-09-09T03:41:29.901Z,7.50
2018-09-09T03:43:59.283Z,13.20
2018-09-09T03:46:29.711Z,9.20
2018-09-09T03:48:59.114Z,12.20
2018-09-09T03:51:28.559Z,15.07
2018-09-09T03:53:57.943Z,8.60
2018-09-09T03:56:27.292Z,10.50
2018-09-09T03:58:56.696Z,12.27
2018-09-09T04:01:26.121Z,10.27
2018-09-09T04:03:56.138Z,13.83
2018-09-09T04:06:25.875Z,9.83
2018-09-09T04:08:55.243Z,13.10
2018-09-09T04:11:24.613Z,13.30
2018-09-09T04:13:53.987Z,10.90
2018-09-09T04:16:23.336Z,14.53
2018-09-09T04:18:52.677Z,14.40
2018-09-09T04:21:22.139Z,11.10
2018-09-09T04:23:51.557Z,18.43
2018-09-09T04:26:20.911Z,18.50
2018-09-09T04:28:50.282Z,9.67
2018-09-09T04:31:19.694Z,12.13
2018-09-09T04:33:49.099Z,9.30
2018-09-09T04:36:18.483Z,7.97
2018-09-09T04:38:47.878Z,9.67
2018-09-09T04:41:17.294Z,12.53
2018-09-09T04:43:46.725Z,12.93
2018-09-09T04:46:16.263Z,14.20
2018-09-09T04:48:45.642Z,12.70
2018-09-09T04:51:15.084Z,16.40
2018-09-09T04:53:44.461Z,8.23
2018-09-09T04:56:13.836Z,14.00
2018-09-09T04:58:43.266Z,17.87
2018-09-09T05:01:12.687Z,11.87
2018-09-09T05:03:42.035Z,9.07
2018-09-09T05:06:11.432Z,9.50
2018-09-09T05:08:42.178Z,10.20
2018-09-09T05:11:12.106Z,12.13
2018-09-09T05:13:41.482Z,9.07
2018-09-09T05:16:10.993Z,6.70
2018-09-09T05:18:40.714Z,14.70
2018-09-09T05:21:10.155Z,6.13
2018-09-09T05:23:39.519Z,14.43
2018-09-09T05:26:08.918Z,12.23
2018-09-09T05:28:38.286Z,11.67
2018-09-09T05:31:07.711Z,10.30
2018-09-09T05:33:37.129Z,11.87
2018-09-09T05:36:06.498Z,11.20
2018-09-09T05:38:35.866Z,12.73
2018-09-09T05:41:05.342Z,11.53
2018-09-09T05:43:34.728Z,10.73
2018-09-09T05:46:04.117Z,14.00
2018-09-09T05:48:33.530Z,15.17
2018-09-09T05:51:02.942Z,10.03
2018-09-09T05:53:32.264Z,16.93
2018-09-09T05:56:01.650Z,7.90
2018-09-09T05:58:31.003Z,19.60
2018-09-09T06:01:00.491Z,8.30
2018-09-09T06:03:29.940Z,11.70
2018-09-09T06:05:59.398Z,16.27
2018-09-09T06:08:28.802Z,10.20
2018-09-09T06:10:58.207Z,9.10
2018-09-09T06:13:27.782Z,12.50
2018-09-09T06:15:57.145Z,7.80
2018-09-09T06:18:26.559Z,14.70
2018-09-09T06:20:55.982Z,11.77
2018-09-09T06:23:25.320Z,10.27
2018-09-09T06:25:54.700Z,11.77
2018-09-09T06:28:24.057Z,9.60
2018-09-09T06:30:53.511Z,9.77
2018-09-09T06:33:22.869Z,11.93
2018-09-09T06:35:52.430Z,10.63
2018-09-09T06:38:21.791Z,11.57
2018-09-09T06:40:51.226Z,8.00
2018-09-09T06:43:20.572Z,9.47
2018-09-09T06:45:49.954Z,11.13
2018-09-09T06:48:19.343Z,5.90
2018-09-09T06:50:48.737Z,15.60
2018-09-09T06:53:18.078Z,7.43
2018-09-09T06:55:47.446Z,8.83
2018-09-09T06:58:16.770Z,6.93
2018-09-09T07:00:46.129Z,10.20
2018-09-09T07:03:15.503Z,2.90
2018-09-09T07:05:44.869Z,7.53
2018-09-09T07:08:14.297Z,7.83
2018-09-09T07:10:43.742Z,5.67
2018-09-09T07:13:13.163Z,4.77
2018-09-09T07:15:42.728Z,3.90
2018-09-09T07:18:12.221Z,5.73
2018-09-09T07:20:41.602Z,8.03
2018-09-09T07:23:10.970Z,6.07
2018-09-09T07:25:40.422Z,5.37
2018-09-09T07:28:09.800Z,6.97
2018-09-09T07:30:39.143Z,8.00
2018-09-09T07:33:08.592Z,6.70
2018-09-09T07:35:37.988Z,3.17
2018-09-09T07:38:07.388Z,7.33
2018-09-09T07:40:36.776Z,5.40
2018-09-09T07:43:06.171Z,16.03
2018-09-09T07:45:35.535Z,8.73
2018-09-09T07:48:05.051Z,9.83
2018-09-09T07:50:34.471Z,6.33
2018-09-09T07:53:03.960Z,8.93
2018-09-09T07:55:33.324Z,9.03
2018-09-09T07:58:02.791Z,6.00
2018-09-09T08:00:32.253Z,6.53
2018-09-09T08:03:01.607Z,8.07
2018-09-09T08:05:30.922Z,3.43
2018-09-09T08:08:00.421Z,8.63
2018-09-09T08:10:29.707Z,4.37
2018-09-09T08:12:59.055Z,9.87
2018-09-09T08:15:28.475Z,4.93
2018-09-09T08:17:57.848Z,12.57
2018-09-09T08:20:27.267Z,8.70
2018-09-09T08:22:56.697Z,6.00
2018-09-09T08:25:26.073Z,3.20
2018-09-09T08:27:59.775Z,2.90
2018-09-09T08:30:29.313Z,3.83
2018-09-09T08:32:58.780Z,6.37
2018-09-09T08:35:28.099Z,7.27
2018-09-09T08:37:57.545Z,7.93
2018-09-09T08:40:26.913Z,4.23
2018-09-09T08:42:56.310Z,5.43
2018-09-09T08:45:25.737Z,4.97
2018-09-09T08:47:55.188Z,8.33
2018-09-09T08:50:24.570Z,3.93
2018-09-09T08:52:53.962Z,9.80
2018-09-09T08:55:23.348Z,8.83
2018-09-09T08:57:52.771Z,13.37
2018-09-09T09:00:22.246Z,6.07
2018-09-09T09:02:51.613Z,7.53
2018-09-09T09:05:29.521Z,10.87
2018-09-09T09:07:59.091Z,6.73
2018-09-09T09:10:28.401Z,4.77
2018-09-09T09:12:58.434Z,4.93
2018-09-09T09:15:27.876Z,11.60
2018-09-09T09:17:57.293Z,5.97
2018-09-09T09:20:26.685Z,6.77
2018-09-09T09:22:56.038Z,9.57
2018-09-09T09:25:25.654Z,7.10
2018-09-09T09:27:55.063Z,5.83
2018-09-09T09:30:24.538Z,5.20
2018-09-09T09:32:53.944Z,8.53
2018-09-09T09:35:27.418Z,8.87
2018-09-09T09:37:56.847Z,8.30
2018-09-09T09:40:26.258Z,7.10
2018-09-09T09:42:55.635Z,5.30
2018-09-09T09:45:25.107Z,7.60
2018-09-09T09:47:54.526Z,11.47
2018-09-09T09:50:23.886Z,12.37
2018-09-09T09:52:53.327Z,9.57
2018-09-09T09:55:22.876Z,4.10
2018-09-09T09:57:52.311Z,10.20
2018-09-09T10:00:26.816Z,4.17
2018-09-09T10:02:56.207Z,12.10
2018-09-09T10:05:25.579Z,5.57
2018-09-09T10:07:55.083Z,6.47
2018-09-09T10:10:24.544Z,10.60
2018-09-09T10:12:53.940Z,7.00
2018-09-09T10:15:23.346Z,11.63
2018-09-09T10:17:52.762Z,4.67
2018-09-09T10:20:22.250Z,8.23
2018-09-09T10:22:51.627Z,12.37
2018-09-09T10:25:21.047Z,6.70
2018-09-09T10:27:50.480Z,3.50
2018-09-09T10:30:19.877Z,11.43
2018-09-09T10:32:49.467Z,11.13
2018-09-09T10:35:18.955Z,8.50
2018-09-09T10:37:48.371Z,12.33
2018-09-09T10:40:17.854Z,10.33
2018-09-09T10:42:47.275Z,9.23
2018-09-09T10:45:16.675Z,13.73
2018-09-09T10:47:46.101Z,16.10
2018-09-09T10:50:15.546Z,12.30
2018-09-09T10:52:44.986Z,13.10
2018-09-09T10:55:14.456Z,8.97
2018-09-09T10:57:43.844Z,12.97
2018-09-09T11:00:13.169Z,20.63
2018-09-09T11:02:42.506Z,8.90
2018-09-09T11:05:11.936Z,12.30
2018-09-09T11:07:41.366Z,8.93
2018-09-09T11:10:10.746Z,5.50
2018-09-09T11:12:40.291Z,7.37
2018-09-09T11:15:09.869Z,8.00
2018-09-09T11:17:39.502Z,12.03
2018-09-09T11:20:09.046Z,7.47
2018-09-09T11:22:38.527Z,8.87
2018-09-09T11:25:07.992Z,19.90
2018-09-09T11:27:37.462Z,6.53
2018-09-09T11:30:07.217Z,13.67
2018-09-09T11:32:36.609Z,11.73
2018-09-09T11:35:06.012Z,16.80
2018-09-09T11:37:35.420Z,25.07
2018-09-09T11:40:04.908Z,14.43
2018-09-09T11:42:34.833Z,15.13
2018-09-09T11:45:04.431Z,20.10
2018-09-09T11:47:33.843Z,14.03
2018-09-09T11:50:04.215Z,27.07
2018-09-09T11:52:33.647Z,14.03
2018-09-09T11:55:03.119Z,11.63
2018-09-09T11:57:32.507Z,21.10
2018-09-09T12:00:01.961Z,21.93
2018-09-09T12:02:31.552Z,13.50
2018-09-09T12:05:01.759Z,11.40
2018-09-09T12:07:31.202Z,20.13
2018-09-09T12:10:03.193Z,17.27
2018-09-09T12:12:32.599Z,8.13
2018-09-09T12:15:02.102Z,13.97
2018-09-09T12:17:32.419Z,9.13
2018-09-09T12:20:01.808Z,6.10
2018-09-09T12:22:31.301Z,9.37
2018-09-09T12:25:00.751Z,17.73
2018-09-09T12:27:30.183Z,6.10
2018-09-09T12:30:01.153Z,10.73
2018-09-09T12:34:59.050Z,6.00
2018-09-09T12:37:28.613Z,7.50
2018-09-09T12:39:58.130Z,10.33
2018-09-09T12:42:29.025Z,6.93
2018-09-09T12:45:03.375Z,9.53
2018-09-09T12:47:38.010Z,11.47
2018-09-09T12:50:07.607Z,12.60
2018-09-09T12:52:36.984Z,10.90
2018-09-09T12:55:06.633Z,6.60
2018-09-09T12:57:36.883Z,9.30
2018-09-09T13:00:06.569Z,12.97
2018-09-09T13:02:35.908Z,7.93
2018-09-09T13:05:06.376Z,13.87
2018-09-09T13:07:35.711Z,12.47
2018-09-09T13:10:05.263Z,10.30
2018-09-09T13:12:39.844Z,12.73
2018-09-09T13:15:09.522Z,10.17
2018-09-09T13:17:38.907Z,8.43
2018-09-09T13:20:08.386Z,10.77
2018-09-09T13:22:37.741Z,8.47
2018-09-09T13:25:07.136Z,6.90
2018-09-09T13:27:42.818Z,5.13
2018-09-09T13:30:12.174Z,10.57
2018-09-09T13:32:41.535Z,7.63
2018-09-09T13:35:10.958Z,9.50
2018-09-09T13:37:40.346Z,10.13
2018-09-09T13:40:09.691Z,17.00
2018-09-09T13:42:39.246Z,11.37
2018-09-09T13:45:10.534Z,8.67
2018-09-09T13:47:39.936Z,9.47
2018-09-09T13:50:09.331Z,11.00
2018-09-09T13:52:38.980Z,14.23
2018-09-09T13:55:22.220Z,10.13
2018-09-09T13:57:51.691Z,17.60
2018-09-09T14:00:21.108Z,8.67
2018-09-09T14:02:50.624Z,14.60
2018-09-09T14:05:20.021Z,15.03
2018-09-09T14:07:49.443Z,8.27
2018-09-09T14:10:18.923Z,14.27
2018-09-09T14:12:48.282Z,9.70
2018-09-09T14:15:17.740Z,7.13
2018-09-09T14:18:50.637Z,4.60
2018-09-09T14:21:19.990Z,10.30
2018-09-09T14:23:49.298Z,11.43
2018-09-09T14:26:18.633Z,4.87
2018-09-09T14:28:48.227Z,7.43
2018-09-09T14:31:17.603Z,6.37
2018-09-09T14:33:46.958Z,10.43
2018-09-09T14:36:22.702Z,9.73
2018-09-09T14:38:52.086Z,6.63
2018-09-09T14:41:21.419Z,5.27
2018-09-09T14:43:50.886Z,20.13
2018-09-09T14:46:20.280Z,10.33
2018-09-09T14:48:50.634Z,17.03
2018-09-09T14:51:20.080Z,11.43
2018-09-09T14:53:49.417Z,13.30
2018-09-09T14:56:18.775Z,11.07
2018-09-09T14:58:48.110Z,8.17
2018-09-09T15:01:17.667Z,6.80
2018-09-09T15:03:47.095Z,7.73
2018-09-09T15:06:20.142Z,6.50
2018-09-09T15:08:52.886Z,8.93
2018-09-09T15:14:14.228Z,10.13
2018-09-09T15:17:03.292Z,18.13
2018-09-09T15:19:33.908Z,6.10
2018-09-09T15:22:09.170Z,11.20
2018-09-09T15:24:44.540Z,11.17
2018-09-09T15:27:32.762Z,11.83
2018-09-09T15:30:03.365Z,5.07
2018-09-09T15:32:33.101Z,10.10
2018-09-09T15:35:02.554Z,9.43
2018-09-09T15:37:32.027Z,8.73
2018-09-09T15:40:01.498Z,10.90
2018-09-09T15:42:30.832Z,11.13
2018-09-09T15:45:00.260Z,9.38
2018-09-09T15:47:29.828Z,10.87
2018-09-09T15:49:59.277Z,13.03
2018-09-09T15:52:28.943Z,13.17
2018-09-09T15:54:58.454Z,9.10
2018-09-09T15:57:28.028Z,8.83
2018-09-09T15:59:57.494Z,4.50
2018-09-09T16:02:26.950Z,9.13
2018-09-09T16:04:56.507Z,9.87
2018-09-09T16:07:26.034Z,6.83
2018-09-09T16:09:55.416Z,7.00
2018-09-09T16:12:24.861Z,9.43
2018-09-09T16:14:54.259Z,7.40
2018-09-09T16:17:23.723Z,17.30
2018-09-09T16:19:53.159Z,12.60
2018-09-09T16:22:22.624Z,11.70
2018-09-09T16:24:52.199Z,7.47
2018-09-09T16:27:21.637Z,12.30
2018-09-09T16:29:51.055Z,5.40
2018-09-09T16:32:20.659Z,6.40
2018-09-09T16:34:50.119Z,9.53
2018-09-09T16:37:19.526Z,6.83
2018-09-09T16:39:49.087Z,14.50
2018-09-09T16:42:18.530Z,13.40
2018-09-09T16:44:48.024Z,8.80
2018-09-09T16:47:17.356Z,17.17
2018-09-09T16:49:47.076Z,13.53
2018-09-09T16:52:16.600Z,17.90
2018-09-09T16:54:46.010Z,11.50
2018-09-09T16:57:15.404Z,13.40
2018-09-09T16:59:44.897Z,9.33
2018-09-09T17:02:14.381Z,12.60
2018-09-09T17:04:43.967Z,248.63
2018-09-09T17:07:13.479Z,133.57
2018-09-09T17:09:42.855Z,186.87
2018-09-09T17:12:12.202Z,123.30
2018-09-09T17:14:41.669Z,46.80
2018-09-09T17:17:11.136Z,52.60
2018-09-09T17:19:40.722Z,91.17
2018-09-09T17:22:10.459Z,43.80
2018-09-09T17:24:39.938Z,66.97
2018-09-09T17:27:09.587Z,49.00
2018-09-09T17:29:38.962Z,18.63
2018-09-09T17:32:08.427Z,23.00
2018-09-09T17:34:38.046Z,18.47
2018-09-09T17:37:07.637Z,24.07
2018-09-09T17:39:37.099Z,21.17
2018-09-09T17:42:06.566Z,19.93
2018-09-09T17:44:36.050Z,11.37
2018-09-09T17:47:13.572Z,18.17
2018-09-09T17:49:42.900Z,21.47
2018-09-09T17:52:12.507Z,17.17
2018-09-09T17:54:41.995Z,25.90
2018-09-09T17:57:11.442Z,25.83
2018-09-09T17:59:40.879Z,20.30
2018-09-09T18:02:10.299Z,21.00
2018-09-09T18:04:39.724Z,17.03
2018-09-09T18:07:09.079Z,19.43
2018-09-09T18:09:38.688Z,12.70
2018-09-09T18:12:08.043Z,16.37
2018-09-09T18:14:37.416Z,13.93
2018-09-09T18:17:06.879Z,14.33
2018-09-09T18:19:36.347Z,11.70
2018-09-09T18:22:05.744Z,13.03
2018-09-09T18:24:35.136Z,13.53
2018-09-09T18:27:04.550Z,13.37
2018-09-09T18:29:33.927Z,7.23
2018-09-09T18:32:03.545Z,16.93
2018-09-09T18:34:33.045Z,10.97
2018-09-09T18:37:05.884Z,13.37
2018-09-09T18:39:35.741Z,14.30
2018-09-09T18:42:05.350Z,20.03
2018-09-09T18:44:34.721Z,10.43
2018-09-09T18:47:04.228Z,11.67
2018-09-09T18:49:33.715Z,13.67
2018-09-09T18:52:03.132Z,13.83
2018-09-09T18:54:32.648Z,13.17
2018-09-09T18:57:02.050Z,11.80
2018-09-09T18:59:31.395Z,8.00
2018-09-09T19:02:00.938Z,15.70
2018-09-09T19:04:30.313Z,11.73
2018-09-09T19:06:59.690Z,20.63
2018-09-09T19:09:29.104Z,12.73
2018-09-09T19:11:58.705Z,11.93
2018-09-09T19:14:28.258Z,10.53
2018-09-09T19:16:57.924Z,12.47
2018-09-09T19:19:27.515Z,11.40
2018-09-09T19:21:57.088Z,17.10
2018-09-09T19:24:26.519Z,53.70
2018-09-09T19:26:55.937Z,26.73
2018-09-09T19:29:25.389Z,24.50
2018-09-09T19:31:54.795Z,13.10
2018-09-09T19:34:24.243Z,14.70
2018-09-09T19:36:53.575Z,8.80
2018-09-09T19:39:23.138Z,23.87
2018-09-09T19:41:52.541Z,9.50
2018-09-09T19:44:21.982Z,9.17
2018-09-09T19:46:51.597Z,15.57
2018-09-09T19:49:21.159Z,14.60
2018-09-09T19:51:50.719Z,12.70
2018-09-09T19:54:20.106Z,14.80
2018-09-09T19:56:49.610Z,13.50
2018-09-09T19:59:19.105Z,12.67
2018-09-09T20:01:48.658Z,8.40
2018-09-09T20:04:18.234Z,13.20
2018-09-09T20:06:47.711Z,9.50
2018-09-09T20:09:17.214Z,13.70
2018-09-09T20:11:46.600Z,14.20
2018-09-09T20:14:16.050Z,12.63
2018-09-09T20:16:45.487Z,13.33
2018-09-09T20:19:15.056Z,15.33
2018-09-09T20:21:44.413Z,14.00
2018-09-09T20:24:13.863Z,12.43
2018-09-09T20:26:43.264Z,11.97
2018-09-09T20:29:12.776Z,10.27
2018-09-09T20:31:43.601Z,16.13
2018-09-09T20:34:13.091Z,13.87
2018-09-09T20:36:42.610Z,12.93
2018-09-09T20:39:12.754Z,15.03
2018-09-09T20:41:42.350Z,13.57
2018-09-09T20:44:14.707Z,10.10
2018-09-09T20:46:47.776Z,16.57
2018-09-09T20:49:17.213Z,15.90
2018-09-09T20:51:46.904Z,12.30
2018-09-09T20:54:23.187Z,12.80
2018-09-09T20:56:52.795Z,17.90
2018-09-09T20:59:23.454Z,13.13
2018-09-09T21:01:56.374Z,12.20
2018-09-09T21:04:25.854Z,12.60
2018-09-09T21:06:55.270Z,17.90
2018-09-09T21:09:25.729Z,11.90
2018-09-09T21:11:56.331Z,11.13
2018-09-09T21:14:25.806Z,11.10
2018-09-09T21:16:55.219Z,15.97
2018-09-09T21:19:25.211Z,12.13
2018-09-09T21:21:54.581Z,12.13
2018-09-09T21:24:24.122Z,24.70
2018-09-09T21:26:53.598Z,15.77
2018-09-09T21:29:22.980Z,12.27
2018-09-09T21:31:52.604Z,12.60
2018-09-09T21:34:22.233Z,13.95
2018-09-09T21:36:51.715Z,11.63
2018-09-09T21:39:21.385Z,10.33
2018-09-09T21:41:50.836Z,13.97
2018-09-09T21:44:20.384Z,13.90
2018-09-09T21:46:49.983Z,13.50
2018-09-09T21:49:20.093Z,15.07
2018-09-09T21:51:49.499Z,15.33
2018-09-09T21:54:18.902Z,20.60
2018-09-09T21:56:48.365Z,14.03
2018-09-09T21:59:17.791Z,16.53
2018-09-09T22:01:53.097Z,19.07
2018-09-09T22:04:22.660Z,13.40
2018-09-09T22:06:52.133Z,11.53
2018-09-09T22:09:22.438Z,14.30
2018-09-09T22:11:51.901Z,14.60
2018-09-09T22:14:22.855Z,13.93
2018-09-09T22:16:52.426Z,11.70
2018-09-09T22:19:21.883Z,11.30
2018-09-09T22:21:51.475Z,17.10
2018-09-09T22:24:22.134Z,12.47
2018-09-09T22:26:51.563Z,14.03
2018-09-09T22:29:21.090Z,13.17
2018-09-09T22:31:50.563Z,17.80
2018-09-09T22:34:19.951Z,13.90
2018-09-09T22:36:49.430Z,13.00
2018-09-09T22:39:18.983Z,10.80
2018-09-09T22:41:48.363Z,7.97
2018-09-09T22:44:17.716Z,11.17
2018-09-09T22:46:47.205Z,16.50
2018-09-09T22:49:16.654Z,12.33
2018-09-09T22:51:46.032Z,11.43
2018-09-09T22:54:15.410Z,9.23
2018-09-09T22:56:44.789Z,13.47
2018-09-09T22:59:14.192Z,10.33
2018-09-09T23:01:43.611Z,12.47
2018-09-09T23:04:12.997Z,12.33
2018-09-09T23:06:42.382Z,10.40
2018-09-09T23:09:13.029Z,8.33
2018-09-09T23:11:42.506Z,6.47
2018-09-09T23:14:11.971Z,10.37
2018-09-09T23:16:41.423Z,13.33
2018-09-09T23:19:10.986Z,11.93
2018-09-09T23:21:40.350Z,9.37
2018-09-09T23:24:09.726Z,13.40
2018-09-09T23:26:39.102Z,19.47
2018-09-09T23:29:08.523Z,8.20
2018-09-09T23:31:37.935Z,13.73
2018-09-09T23:34:07.363Z,13.80
2018-09-09T23:36:36.832Z,11.27
2018-09-09T23:39:08.915Z,9.93
2018-09-09T23:41:38.243Z,8.57
2018-09-09T23:44:07.888Z,10.90
2018-09-09T23:46:37.353Z,12.70
2018-09-09T23:49:06.856Z,13.40
2018-09-09T23:51:36.322Z,10.27
2018-09-09T23:54:05.770Z,16.77
2018-09-09T23:56:35.119Z,8.13
2018-09-09T23:59:04.498Z,6.43
